createdAt,value
2022-11-16T00:01:19.527Z,97103.13
2022-11-16T00:03:47.626Z,97112.31
2022-11-16T00:06:15.890Z,97114.03
2022-11-16T00:09:07.297Z,97118.69
2022-11-16T00:11:35.724Z,97128.13
2022-11-16T00:14:05.224Z,97129.94
2022-11-16T00:16:33.255Z,97118.75
2022-11-16T00:19:02.797Z,97123.25
2022-11-16T00:21:31.534Z,97119.16
2022-11-16T00:24:02.134Z,97121.69
2022-11-16T00:26:30.138Z,97124.31
2022-11-16T00:28:58.656Z,97123.59
2022-11-16T00:31:28.230Z,97118.81
2022-11-16T00:33:56.241Z,97116.63
2022-11-16T00:36:24.214Z,97121.78
2022-11-16T00:38:53.381Z,97103.78
2022-11-16T00:41:21.398Z,97094.94
2022-11-16T00:43:49.547Z,97098.09
2022-11-16T00:46:19.773Z,97096.69
2022-11-16T00:48:49.230Z,97088.50
2022-11-16T00:51:17.250Z,97093.59
2022-11-16T00:53:45.227Z,97093.50
2022-11-16T00:56:13.282Z,97084.78
2022-11-16T00:58:44.708Z,97073.50
2022-11-16T01:01:13.416Z,97067.16
2022-11-16T01:03:41.487Z,97057.47
2022-11-16T01:06:11.926Z,97064.03
2022-11-16T01:08:40.768Z,97062.28
2022-11-16T01:11:27.015Z,97070.69
2022-11-16T01:13:56.602Z,97066.13
2022-11-16T01:16:25.132Z,97072.16
2022-11-16T01:18:54.506Z,97066.97
2022-11-16T01:21:26.802Z,97066.25
2022-11-16T01:23:55.733Z,97074.47
2022-11-16T01:26:23.823Z,97070.59
2022-11-16T01:28:51.947Z,97068.94
2022-11-16T01:31:20.250Z,97071.97
2022-11-16T01:33:50.417Z,97068.97
2022-11-16T01:36:23.215Z,97065.66
2022-11-16T01:38:52.579Z,97062.13
2022-11-16T01:41:25.019Z,97053.31
2022-11-16T01:43:59.706Z,97053.91
2022-11-16T01:46:33.117Z,97059.97
2022-11-16T01:49:06.338Z,97054.63
2022-11-16T01:51:35.655Z,97057.47
2022-11-16T01:54:09.838Z,97045.59
2022-11-16T01:56:42.593Z,97048.75
2022-11-16T01:59:13.424Z,97055.31
2022-11-16T02:01:41.830Z,97062.94
2022-11-16T02:04:11.027Z,97067.41
2022-11-16T02:06:49.747Z,97071.16
2022-11-16T02:09:46.130Z,97065.28
2022-11-16T02:12:21.034Z,97065.63
2022-11-16T02:15:00.516Z,97075.75
2022-11-16T02:17:33.984Z,97068.19
2022-11-16T02:20:24.082Z,97069.91
2022-11-16T02:23:02.359Z,97076.16
2022-11-16T02:25:35.596Z,97060.47
2022-11-16T02:28:11.372Z,97062.31
2022-11-16T02:30:43.075Z,97044.59
2022-11-16T02:33:12.904Z,97059.97
2022-11-16T02:35:44.482Z,97056.75
2022-11-16T02:38:17.185Z,97059.59
2022-11-16T02:40:47.484Z,97045.47
2022-11-16T02:43:23.696Z,97049.00
2022-11-16T02:45:56.422Z,97050.38
2022-11-16T02:48:35.580Z,97052.06
2022-11-16T02:51:04.266Z,97047.91
2022-11-16T02:53:33.559Z,97047.66
2022-11-16T02:56:02.010Z,97043.22
2022-11-16T02:58:30.308Z,97038.44
2022-11-16T03:01:02.194Z,97038.75
2022-11-16T03:03:35.548Z,97034.56
2022-11-16T03:06:06.610Z,97036.66
2022-11-16T03:08:38.758Z,97040.47
2022-11-16T03:11:40.846Z,97038.47
2022-11-16T03:14:12.840Z,97036.72
2022-11-16T03:16:47.361Z,97040.47
2022-11-16T03:19:23.093Z,97047.59
2022-11-16T03:21:53.875Z,97044.38
2022-11-16T03:24:22.007Z,97047.25
2022-11-16T03:26:52.187Z,97046.72
2022-11-16T03:29:23.612Z,97058.16
2022-11-16T03:31:58.148Z,97070.72
2022-11-16T03:34:30.403Z,97067.81
2022-11-16T03:37:00.267Z,97059.97
2022-11-16T03:39:31.647Z,97066.56
2022-11-16T03:42:01.274Z,97057.47
2022-11-16T03:44:31.676Z,97059.41
2022-11-16T03:47:02.269Z,97049.22
2022-11-16T03:49:31.213Z,97062.88
2022-11-16T03:51:59.342Z,97073.56
2022-11-16T03:54:27.394Z,97084.22
2022-11-16T03:56:57.826Z,97082.78
2022-11-16T03:59:25.871Z,97085.66
2022-11-16T04:01:56.197Z,97084.59
2022-11-16T04:04:43.351Z,97079.88
2022-11-16T04:07:29.199Z,97087.50
2022-11-16T04:10:15.016Z,97077.09
2022-11-16T04:13:02.337Z,97076.59
2022-11-16T04:15:48.109Z,97071.13
2022-11-16T04:18:34.483Z,97077.06
2022-11-16T04:21:21.841Z,97071.16
2022-11-16T04:24:07.666Z,97069.75
2022-11-16T04:26:52.414Z,97068.16
2022-11-16T04:29:21.123Z,97070.47
2022-11-16T04:32:06.944Z,97079.13
2022-11-16T04:34:53.131Z,97077.06
2022-11-16T04:37:43.221Z,97089.94
2022-11-16T04:40:12.421Z,97095.75
2022-11-16T04:42:40.509Z,97101.72
2022-11-16T04:45:27.799Z,97100.91
2022-11-16T04:47:55.907Z,97100.53
2022-11-16T04:50:29.025Z,97099.81
2022-11-16T04:52:59.840Z,97094.13
2022-11-16T04:55:27.917Z,97092.53
2022-11-16T04:57:55.935Z,97097.59
2022-11-16T05:00:24.264Z,97095.75
2022-11-16T05:02:55.682Z,97090.00
2022-11-16T05:05:28.813Z,97097.94
2022-11-16T05:07:57.246Z,97104.16
2022-11-16T05:10:30.551Z,97101.94
2022-11-16T05:12:58.609Z,97099.97
2022-11-16T05:15:28.391Z,97094.78
2022-11-16T05:17:58.211Z,97092.56
2022-11-16T05:20:50.094Z,97087.59
2022-11-16T05:23:36.274Z,97083.31
2022-11-16T05:26:11.141Z,97074.66
2022-11-16T05:28:39.724Z,97095.28
2022-11-16T05:31:10.066Z,97090.09
2022-11-16T05:33:38.127Z,97091.13
2022-11-16T05:36:06.835Z,97091.16
2022-11-16T05:38:35.019Z,97093.69
2022-11-16T05:41:03.177Z,97091.69
2022-11-16T05:43:33.397Z,97097.19
2022-11-16T05:46:27.617Z,97088.75
2022-11-16T05:48:58.514Z,97110.94
2022-11-16T05:51:26.992Z,97116.06
2022-11-16T05:53:56.115Z,97121.34
2022-11-16T05:56:24.983Z,97117.31
2022-11-16T05:58:56.494Z,97121.00
2022-11-16T06:01:24.613Z,97128.78
2022-11-16T06:03:55.118Z,97125.31
2022-11-16T06:06:23.105Z,97128.06
2022-11-16T06:08:52.272Z,97118.28
2022-11-16T06:11:25.494Z,97125.97
2022-11-16T06:13:53.821Z,97125.59
2022-11-16T06:16:25.269Z,97127.88
2022-11-16T06:18:55.882Z,97137.25
2022-11-16T06:21:26.319Z,97141.31
2022-11-16T06:23:57.393Z,97145.50
2022-11-16T06:26:25.419Z,97149.84
2022-11-16T06:28:54.829Z,97147.72
2022-11-16T06:31:25.134Z,97154.44
2022-11-16T06:33:54.780Z,97147.13
2022-11-16T06:36:26.852Z,97141.63
2022-11-16T06:38:54.857Z,97159.31
2022-11-16T06:41:23.754Z,97160.59
2022-11-16T06:43:52.644Z,97155.53
2022-11-16T06:46:26.138Z,97148.34
2022-11-16T06:48:54.801Z,97159.47
2022-11-16T06:51:23.093Z,97153.34
2022-11-16T06:53:51.070Z,97157.22
2022-11-16T06:56:20.135Z,97166.22
2022-11-16T06:58:53.798Z,97168.63
2022-11-16T07:01:24.093Z,97176.84
2022-11-16T07:03:59.010Z,97181.53
2022-11-16T07:06:27.623Z,97176.78
2022-11-16T07:08:55.875Z,97184.13
2022-11-16T07:11:27.684Z,97189.34
2022-11-16T07:13:59.729Z,97187.41
2022-11-16T07:16:28.862Z,97194.47
2022-11-16T07:19:01.997Z,97196.66
2022-11-16T07:21:32.113Z,97208.28
2022-11-16T07:24:03.115Z,97203.34
2022-11-16T07:26:33.102Z,97213.09
2022-11-16T07:29:07.737Z,97217.06
2022-11-16T07:31:38.890Z,97208.81
2022-11-16T07:34:38.863Z,97209.63
2022-11-16T07:37:10.234Z,97210.81
2022-11-16T07:39:38.874Z,97205.53
2022-11-16T07:42:11.771Z,97203.38
2022-11-16T07:44:50.807Z,97210.88
2022-11-16T07:47:18.877Z,97214.69
2022-11-16T07:49:48.976Z,97223.72
2022-11-16T07:52:20.425Z,97209.56
2022-11-16T07:54:57.250Z,97216.41
2022-11-16T07:57:27.571Z,97219.50
2022-11-16T07:59:57.431Z,97215.09
2022-11-16T08:02:30.458Z,97217.75
2022-11-16T08:04:59.911Z,97214.94
2022-11-16T08:07:29.581Z,97213.41
2022-11-16T08:09:58.145Z,97219.44
2022-11-16T08:12:28.736Z,97221.22
2022-11-16T08:14:59.174Z,97212.13
2022-11-16T08:17:27.196Z,97201.75
2022-11-16T08:19:55.486Z,97202.59
2022-11-16T08:22:25.249Z,97202.09
2022-11-16T08:24:53.893Z,97193.69
2022-11-16T08:27:25.850Z,97202.28
2022-11-16T08:29:57.723Z,97206.78
2022-11-16T08:32:25.981Z,97200.84
2022-11-16T08:34:55.279Z,97197.44
2022-11-16T08:37:26.012Z,97185.84
2022-11-16T08:39:54.353Z,97199.94
2022-11-16T08:42:22.679Z,97197.78
2022-11-16T08:44:50.984Z,97200.94
2022-11-16T08:47:21.081Z,97214.66
2022-11-16T08:49:59.924Z,97207.44
2022-11-16T08:52:32.920Z,97205.25
2022-11-16T08:55:02.178Z,97209.63
2022-11-16T08:57:30.974Z,97208.03
2022-11-16T09:00:01.394Z,97218.84
2022-11-16T09:02:31.737Z,97215.66
2022-11-16T09:04:59.736Z,97214.50
2022-11-16T09:07:27.846Z,97204.00
2022-11-16T09:09:57.257Z,97192.03
2022-11-16T09:12:25.253Z,97188.53
2022-11-16T09:14:53.259Z,97181.19
2022-11-16T09:17:23.248Z,97184.78
2022-11-16T09:19:51.463Z,97183.16
2022-11-16T09:22:21.891Z,97181.16
2022-11-16T09:24:49.994Z,97182.09
2022-11-16T09:27:21.836Z,97176.88
2022-11-16T09:29:49.842Z,97181.50
2022-11-16T09:32:17.864Z,97183.38
2022-11-16T09:34:45.882Z,97182.50
2022-11-16T09:37:15.261Z,97175.44
2022-11-16T09:39:45.390Z,97174.94
2022-11-16T09:42:27.681Z,97176.50
2022-11-16T09:45:00.504Z,97192.81
2022-11-16T09:47:39.057Z,97185.13
2022-11-16T09:50:08.302Z,97183.38
2022-11-16T09:52:39.954Z,97184.44
2022-11-16T09:55:20.578Z,97189.28
2022-11-16T09:57:51.119Z,97186.34
2022-11-16T10:00:21.715Z,97170.94
2022-11-16T10:02:53.579Z,97182.53
2022-11-16T10:05:22.781Z,97190.34
2022-11-16T10:07:52.499Z,97190.56
2022-11-16T10:10:28.771Z,97181.47
2022-11-16T10:13:01.647Z,97191.78
2022-11-16T10:15:35.762Z,97180.44
2022-11-16T10:18:18.246Z,97182.03
2022-11-16T10:21:10.295Z,97185.41
2022-11-16T10:23:44.616Z,97179.41
2022-11-16T10:26:21.551Z,97171.44
2022-11-16T10:28:57.917Z,97176.09
2022-11-16T10:31:31.935Z,97169.53
2022-11-16T10:34:02.932Z,97173.22
2022-11-16T10:36:32.081Z,97181.00
2022-11-16T10:39:01.193Z,97165.38
2022-11-16T10:41:32.724Z,97179.69
2022-11-16T10:44:02.700Z,97158.72
2022-11-16T10:46:34.671Z,97168.31
2022-11-16T10:49:08.540Z,97170.38
2022-11-16T10:51:36.593Z,97159.28
2022-11-16T10:54:12.372Z,97162.47
2022-11-16T10:56:42.601Z,97151.75
2022-11-16T10:59:13.449Z,97159.69
2022-11-16T11:01:43.336Z,97159.63
2022-11-16T11:04:23.435Z,97158.31
2022-11-16T11:06:52.515Z,97150.28
2022-11-16T11:09:27.879Z,97149.19
2022-11-16T11:12:18.477Z,97140.59
2022-11-16T11:15:01.447Z,97146.47
2022-11-16T11:17:30.016Z,97143.19
2022-11-16T11:19:59.565Z,97142.22
2022-11-16T11:22:27.986Z,97149.91
2022-11-16T11:24:56.166Z,97152.81
2022-11-16T11:27:28.961Z,97147.34
2022-11-16T11:30:01.310Z,97140.09
2022-11-16T11:32:33.107Z,97130.84
2022-11-16T11:35:01.825Z,97136.88
2022-11-16T11:37:31.579Z,97138.53
2022-11-16T11:40:20.587Z,97143.13
2022-11-16T11:42:56.026Z,97138.75
2022-11-16T11:45:26.614Z,97137.56
2022-11-16T11:47:59.431Z,97146.72
2022-11-16T11:50:35.337Z,97139.16
2022-11-16T11:53:08.066Z,97156.13
2022-11-16T11:55:36.063Z,97147.91
2022-11-16T11:58:07.223Z,97144.97
2022-11-16T12:00:42.464Z,97140.34
2022-11-16T12:03:25.940Z,97139.38
2022-11-16T12:05:58.977Z,97144.44
2022-11-16T12:08:36.648Z,97141.91
2022-11-16T12:11:10.420Z,97139.72
2022-11-16T12:13:52.043Z,97131.19
2022-11-16T12:16:27.115Z,97141.00
2022-11-16T12:19:04.024Z,97130.94
2022-11-16T12:21:39.239Z,97134.41
2022-11-16T12:24:25.287Z,97134.91
2022-11-16T12:27:01.399Z,97127.34
2022-11-16T12:29:34.573Z,97130.94
2022-11-16T12:32:15.267Z,97124.09
2022-11-16T12:34:52.303Z,97117.63
2022-11-16T12:37:23.547Z,97122.56
2022-11-16T12:39:56.939Z,97115.09
2022-11-16T12:42:42.735Z,97131.22
2022-11-16T12:45:26.333Z,97118.06
2022-11-16T12:48:09.705Z,97111.72
2022-11-16T12:50:46.249Z,97118.78
2022-11-16T12:53:20.623Z,97116.72
2022-11-16T12:55:52.549Z,97114.81
2022-11-16T12:58:29.616Z,97117.91
2022-11-16T13:01:02.553Z,97110.13
2022-11-16T13:03:36.578Z,97117.97
2022-11-16T13:06:07.640Z,97111.66
2022-11-16T13:08:48.329Z,97117.88
2022-11-16T13:11:18.860Z,97106.53
2022-11-16T13:13:53.456Z,97116.88
2022-11-16T13:16:25.891Z,97104.25
2022-11-16T13:19:09.717Z,97113.22
2022-11-16T13:21:44.596Z,97095.66
2022-11-16T13:24:25.847Z,97110.59
2022-11-16T13:27:05.532Z,97096.44
2022-11-16T13:29:41.093Z,97088.84
2022-11-16T13:32:20.925Z,97106.66
2022-11-16T13:34:51.295Z,97090.16
2022-11-16T13:37:37.975Z,97086.72
2022-11-16T13:40:26.299Z,97094.88
2022-11-16T13:43:02.790Z,97096.44
2022-11-16T13:45:33.207Z,97091.63
2022-11-16T13:48:02.181Z,97080.22
2022-11-16T13:50:37.814Z,97070.69
2022-11-16T13:55:56.652Z,97081.25
2022-11-16T13:58:27.947Z,97062.06
2022-11-16T14:01:07.439Z,97069.34
2022-11-16T14:03:39.436Z,97073.19
2022-11-16T14:06:29.278Z,97070.88
2022-11-16T14:08:59.697Z,97061.72
2022-11-16T14:11:33.155Z,97056.94
2022-11-16T14:14:05.670Z,97057.31
2022-11-16T14:16:46.263Z,97060.66
2022-11-16T14:19:33.013Z,97062.56
2022-11-16T14:22:07.833Z,97050.41
2022-11-16T14:24:38.136Z,97030.41
2022-11-16T14:27:09.700Z,97050.38
2022-11-16T14:29:45.296Z,97044.16
2022-11-16T14:32:21.776Z,97050.16
2022-11-16T14:34:53.131Z,97042.56
2022-11-16T14:37:33.587Z,97046.41
2022-11-16T14:40:03.563Z,97038.91
2022-11-16T14:42:54.287Z,97044.06
2022-11-16T14:45:27.090Z,97037.91
2022-11-16T14:47:57.617Z,97035.50
2022-11-16T14:50:30.144Z,97045.88
2022-11-16T14:53:03.102Z,97034.72
2022-11-16T14:55:31.103Z,97034.22
2022-11-16T14:58:08.770Z,97042.56
2022-11-16T15:00:37.372Z,97032.94
2022-11-16T15:03:06.306Z,97035.00
2022-11-16T15:05:35.505Z,97027.22
2022-11-16T15:08:08.797Z,97028.41
2022-11-16T15:10:36.843Z,97033.81
2022-11-16T15:13:05.039Z,97027.16
2022-11-16T15:15:33.120Z,97001.06
2022-11-16T15:18:08.180Z,97005.75
2022-11-16T15:20:37.270Z,96999.19
2022-11-16T15:23:14.534Z,97005.72
2022-11-16T15:25:44.034Z,96999.88
2022-11-16T15:28:16.318Z,97005.88
2022-11-16T15:30:46.424Z,96990.72
2022-11-16T15:33:17.825Z,97003.84
2022-11-16T15:35:47.133Z,97001.13
2022-11-16T15:38:17.894Z,96996.00
2022-11-16T15:40:47.682Z,96988.44
2022-11-16T15:43:16.093Z,96994.94
2022-11-16T15:45:44.571Z,96993.09
2022-11-16T15:48:15.216Z,96989.81
2022-11-16T15:50:56.979Z,96987.13
2022-11-16T15:53:36.845Z,96984.28
2022-11-16T15:56:06.682Z,96993.81
2022-11-16T15:58:38.283Z,96979.75
2022-11-16T16:01:06.476Z,96972.13
2022-11-16T16:03:36.351Z,96974.63
2022-11-16T16:06:05.498Z,96967.03
2022-11-16T16:08:34.317Z,96975.41
2022-11-16T16:11:05.983Z,96972.19
2022-11-16T16:13:35.886Z,96973.72
2022-11-16T16:16:20.584Z,96981.56
2022-11-16T16:18:48.745Z,96979.34
2022-11-16T16:21:17.199Z,96970.38
2022-11-16T16:23:46.473Z,96966.44
2022-11-16T16:26:16.100Z,96976.06
2022-11-16T16:28:44.358Z,96976.06
2022-11-16T16:31:15.349Z,96972.31
2022-11-16T16:33:43.325Z,96974.44
2022-11-16T16:36:13.525Z,96969.56
2022-11-16T16:38:41.500Z,96963.44
2022-11-16T16:41:21.174Z,96963.53
2022-11-16T16:43:53.237Z,96969.59
2022-11-16T16:46:21.719Z,96959.78
2022-11-16T16:48:49.720Z,96966.09
2022-11-16T16:51:17.774Z,96959.28
2022-11-16T16:53:45.733Z,96956.59
2022-11-16T16:56:15.606Z,96950.69
2022-11-16T16:58:43.609Z,96949.28
2022-11-16T17:01:13.106Z,96941.94
2022-11-16T17:03:41.158Z,96947.56
2022-11-16T17:06:09.368Z,96948.13
2022-11-16T17:08:38.098Z,96948.16
2022-11-16T17:11:08.980Z,96940.09
2022-11-16T17:13:37.187Z,96933.97
2022-11-16T17:16:06.638Z,96934.41
2022-11-16T17:18:36.041Z,96937.94
2022-11-16T17:21:04.675Z,96944.44
2022-11-16T17:23:33.088Z,96940.78
2022-11-16T17:26:04.864Z,96943.88
2022-11-16T17:28:32.872Z,96942.81
2022-11-16T17:31:05.088Z,96939.63
2022-11-16T17:33:34.398Z,96935.44
2022-11-16T17:36:04.497Z,96936.41
2022-11-16T17:38:35.737Z,96934.84
2022-11-16T17:41:04.508Z,96940.34
2022-11-16T17:43:33.046Z,96929.59
2022-11-16T17:46:05.293Z,96926.66
2022-11-16T17:48:35.997Z,96913.31
2022-11-16T17:51:05.579Z,96918.50
2022-11-16T17:53:36.631Z,96915.41
2022-11-16T17:56:05.239Z,96916.06
2022-11-16T17:58:33.928Z,96899.66
2022-11-16T18:01:02.031Z,96905.03
2022-11-16T18:03:30.293Z,96896.66
2022-11-16T18:06:02.376Z,96893.19
2022-11-16T18:08:31.903Z,96895.38
2022-11-16T18:11:04.139Z,96895.06
2022-11-16T18:13:32.532Z,96891.00
2022-11-16T18:16:04.620Z,96869.06
2022-11-16T18:18:33.010Z,96891.00
2022-11-16T18:21:01.572Z,96883.16
2022-11-16T18:23:30.019Z,96886.16
2022-11-16T18:26:03.227Z,96868.28
2022-11-16T18:28:31.201Z,96866.69
2022-11-16T18:31:03.020Z,96872.63
2022-11-16T18:33:31.043Z,96863.66
2022-11-16T18:35:59.207Z,96859.63
2022-11-16T18:38:27.268Z,96844.22
2022-11-16T18:41:06.812Z,96846.16
2022-11-16T18:43:35.668Z,96844.75
2022-11-16T18:46:04.226Z,96836.06
2022-11-16T18:48:32.596Z,96831.97
2022-11-16T18:51:00.832Z,96822.53
2022-11-16T18:53:29.357Z,96826.00
2022-11-16T18:55:58.391Z,96825.59
2022-11-16T19:01:19.613Z,96831.78
2022-11-16T19:03:47.823Z,96833.88
2022-11-16T19:06:17.459Z,96824.50
2022-11-16T19:08:51.839Z,96829.66
2022-11-16T19:11:24.106Z,96840.19
2022-11-16T19:14:00.483Z,96844.19
2022-11-16T19:16:31.902Z,96842.22
2022-11-16T19:19:01.255Z,96832.59
2022-11-16T19:21:29.538Z,96824.81
2022-11-16T19:23:58.480Z,96831.78
2022-11-16T19:26:29.861Z,96819.53
2022-11-16T19:28:59.521Z,96829.53
2022-11-16T19:31:28.553Z,96819.13
2022-11-16T19:33:57.099Z,96830.63
2022-11-16T19:36:25.750Z,96824.47
2022-11-16T19:38:54.224Z,96832.84
2022-11-16T19:41:25.048Z,96830.88
2022-11-16T19:43:57.281Z,96828.88
2022-11-16T19:46:27.381Z,96831.00
2022-11-16T19:48:56.107Z,96833.63
2022-11-16T19:51:30.929Z,96825.22
2022-11-16T19:53:59.355Z,96835.97
2022-11-16T19:56:27.393Z,96840.81
2022-11-16T19:58:55.433Z,96849.56
2022-11-16T20:01:25.393Z,96855.59
2022-11-16T20:03:56.989Z,96854.09
2022-11-16T20:06:26.512Z,96854.25
2022-11-16T20:08:56.772Z,96852.97
2022-11-16T20:11:26.193Z,96831.72
2022-11-16T20:13:55.519Z,96821.28
2022-11-16T20:16:27.331Z,96819.94
2022-11-16T20:18:57.294Z,96811.00
2022-11-16T20:21:26.406Z,96811.88
2022-11-16T20:24:04.691Z,96805.50
2022-11-16T20:26:34.884Z,96798.97
2022-11-16T20:29:03.065Z,96801.47
2022-11-16T20:31:32.001Z,96803.03
2022-11-16T20:34:02.132Z,96797.94
2022-11-16T20:36:31.403Z,96803.00
2022-11-16T20:39:04.947Z,96805.63
2022-11-16T20:41:33.434Z,96815.59
2022-11-16T20:44:02.473Z,96805.50
2022-11-16T20:46:33.773Z,96797.34
2022-11-16T20:49:05.469Z,96791.31
2022-11-16T20:51:33.572Z,96792.28
2022-11-16T20:54:01.588Z,96788.53
2022-11-16T20:56:29.953Z,96780.44
2022-11-16T20:58:58.200Z,96776.72
2022-11-16T21:01:31.353Z,96775.69
2022-11-16T21:04:01.038Z,96776.22
2022-11-16T21:06:30.956Z,96774.50
2022-11-16T21:08:59.266Z,96765.19
2022-11-16T21:11:28.913Z,96760.59
2022-11-16T21:14:14.665Z,96758.13
2022-11-16T21:16:42.803Z,96748.03
2022-11-16T21:19:12.512Z,96754.19
2022-11-16T21:21:42.418Z,96766.97
2022-11-16T21:24:15.646Z,96759.38
2022-11-16T21:26:46.467Z,96766.19
2022-11-16T21:29:14.580Z,96759.56
2022-11-16T21:31:42.728Z,96753.88
2022-11-16T21:34:13.561Z,96736.66
2022-11-16T21:36:42.965Z,96754.91
2022-11-16T21:39:10.950Z,96751.47
2022-11-16T21:41:38.945Z,96752.94
2022-11-16T21:44:06.924Z,96750.75
2022-11-16T21:46:34.955Z,96747.31
2022-11-16T21:49:05.090Z,96742.25
2022-11-16T21:51:33.076Z,96747.31
2022-11-16T21:54:02.566Z,96755.63
2022-11-16T21:56:30.572Z,96751.41
2022-11-16T21:58:58.713Z,96747.22
2022-11-16T22:02:38.932Z,96753.09
2022-11-16T22:05:26.396Z,96750.47
2022-11-16T22:07:54.658Z,96751.50
2022-11-16T22:10:23.000Z,96746.66
2022-11-16T22:12:51.251Z,96747.78
2022-11-16T22:15:19.612Z,96749.84
2022-11-16T22:17:49.222Z,96735.75
2022-11-16T22:20:18.059Z,96733.06
2022-11-16T22:22:46.470Z,96726.84
2022-11-16T22:25:14.879Z,96731.88
2022-11-16T22:28:13.510Z,96725.72
2022-11-16T22:30:31.452Z,96716.00
2022-11-16T22:33:01.044Z,96725.19
2022-11-16T22:35:29.263Z,96718.53
2022-11-16T22:37:59.892Z,96712.91
2022-11-16T22:40:28.177Z,96701.41
2022-11-16T22:42:58.174Z,96703.22
2022-11-16T22:45:26.787Z,96707.19
2022-11-16T22:47:57.410Z,96715.53
2022-11-16T22:50:27.078Z,96707.53
2022-11-16T22:52:58.887Z,96705.06
2022-11-16T22:55:27.151Z,96712.31
2022-11-16T22:57:55.407Z,96703.34
2022-11-16T23:00:23.699Z,96707.63
2022-11-16T23:02:52.944Z,96695.16
2022-11-16T23:05:21.178Z,96695.75
2022-11-16T23:07:50.974Z,96695.34
2022-11-16T23:10:21.385Z,96694.75
2022-11-16T23:13:07.139Z,96694.56
2022-11-16T23:15:55.034Z,96692.31
2022-11-16T23:18:23.294Z,96690.41
2022-11-16T23:21:08.977Z,96690.94
2022-11-16T23:23:56.282Z,96683.47
2022-11-16T23:26:42.342Z,96672.69
2022-11-16T23:29:12.074Z,96662.66
2022-11-16T23:31:40.357Z,96666.34
2022-11-16T23:34:08.634Z,96661.22
2022-11-16T23:36:36.983Z,96655.88
2022-11-16T23:39:06.645Z,96661.03
2022-11-16T23:41:52.353Z,96646.88
2022-11-16T23:44:20.632Z,96634.88
2022-11-16T23:46:48.928Z,96635.41
2022-11-16T23:49:17.169Z,96634.19
2022-11-16T23:51:45.519Z,96631.75
2022-11-16T23:54:15.158Z,96623.59
2022-11-16T23:56:43.408Z,96625.41
2022-11-16T23:59:11.660Z,96597.88
